Time;durP1;ratioP1;P1;durP2;ratioP2;P2;SDS_P1;SDS_P2;PMS_P1;PMS_P2;Temp;Humidity;BMP_temperature;BMP_pressure;BME280_temperature;BME280_humidity;BME280_pressure;Samples;Min_cycle;Max_cycle;Signal;HPM_P1;HPM_P2
2023/09/07 00:01:32;;;;;;;2.20;2.10;;;22.30;91.50;;;;;;4948767;28;20247;-68
2023/09/07 00:03:58;;;;;;;2.00;1.90;;;22.30;91.40;;;;;;4965559;28;20217;-68
2023/09/07 00:06:25;;;;;;;2.45;2.25;;;22.30;91.40;;;;;;4947809;28;20213;-69
2023/09/07 00:08:51;;;;;;;2.55;2.35;;;22.30;91.60;;;;;;4975897;28;20277;-69
2023/09/07 00:11:17;;;;;;;2.80;2.30;;;22.30;91.60;;;;;;4949397;28;20768;-69
2023/09/07 00:13:43;;;;;;;2.67;2.47;;;22.30;91.60;;;;;;4982366;28;20239;-69
2023/09/07 00:16:09;;;;;;;2.38;2.28;;;22.30;91.60;;;;;;4974329;28;20285;-69
2023/09/07 00:18:34;;;;;;;2.30;2.20;;;22.30;91.50;;;;;;4957035;28;20188;-69
2023/09/07 00:21:01;;;;;;;2.20;2.10;;;22.30;91.50;;;;;;4964957;28;20193;-69
2023/09/07 00:23:26;;;;;;;2.72;2.53;;;22.20;91.50;;;;;;4955431;28;20243;-69
2023/09/07 00:25:53;;;;;;;2.60;2.40;;;22.30;91.50;;;;;;4968092;28;20209;-69
2023/09/07 00:28:18;;;;;;;2.35;2.15;;;22.20;91.40;;;;;;4963227;28;20321;-69
2023/09/07 00:30:44;;;;;;;2.33;2.20;;;22.30;91.40;;;;;;4956775;28;20205;-69
2023/09/07 00:33:10;;;;;;;2.58;2.38;;;22.30;91.40;;;;;;4956588;28;20186;-69
2023/09/07 00:35:36;;;;;;;2.55;2.05;;;22.20;91.30;;;;;;4971964;28;20236;-69
2023/09/07 00:38:03;;;;;;;2.85;2.40;;;22.30;91.50;;;;;;4975979;28;20184;-68
2023/09/07 00:40:30;;;;;;;2.58;2.38;;;22.30;91.50;;;;;;4951005;28;20284;-69
2023/09/07 00:42:55;;;;;;;2.50;2.30;;;22.20;91.30;;;;;;4957636;28;20200;-68
2023/09/07 00:45:22;;;;;;;2.28;2.17;;;22.30;91.40;;;;;;4945343;29;20556;-69
2023/09/07 00:47:48;;;;;;;2.30;2.20;;;22.30;91.50;;;;;;4964388;28;20185;-69
2023/09/07 00:50:16;;;;;;;2.50;2.30;;;22.20;91.40;;;;;;4945138;28;20219;-69
2023/09/07 00:52:46;;;;;;;2.50;2.30;;;22.20;91.40;;;;;;4959475;28;20216;-68
2023/09/07 00:55:13;;;;;;;2.38;2.17;;;22.20;91.40;;;;;;4956233;28;20727;-68
2023/09/07 00:57:39;;;;;;;2.83;2.55;;;22.30;91.50;;;;;;4940537;28;20177;-68
2023/09/07 01:00:07;;;;;;;2.50;2.30;;;22.20;91.50;;;;;;4951462;28;20189;-68
2023/09/07 01:02:34;;;;;;;2.45;2.25;;;22.20;91.50;;;;;;4978001;28;20236;-68
2023/09/07 01:05:04;;;;;;;2.10;2.00;;;22.20;91.50;;;;;;4966536;28;20214;-68
2023/09/07 01:07:45;;;;;;;1.90;1.80;;;22.20;91.60;;;;;;4942414;29;20190;-69
2023/09/07 01:10:11;;;;;;;2.55;2.35;;;22.30;91.70;;;;;;4954420;28;20178;-68
2023/09/07 01:12:36;;;;;;;2.30;2.20;;;22.20;91.60;;;;;;4936948;29;20240;-69
2023/09/07 01:15:04;;;;;;;2.30;2.20;;;22.20;91.50;;;;;;4968205;28;20216;-69
2023/09/07 01:17:30;;;;;;;2.63;2.40;;;22.30;91.60;;;;;;4936976;29;20662;-68
2023/09/07 01:19:59;;;;;;;2.42;2.30;;;22.20;91.60;;;;;;4988710;28;20234;-68
2023/09/07 01:22:25;;;;;;;2.50;2.30;;;22.20;91.50;;;;;;4969811;28;20196;-68
2023/09/07 01:24:52;;;;;;;2.00;1.90;;;22.20;91.60;;;;;;4948492;28;20217;-69
2023/09/07 01:27:19;;;;;;;2.60;2.40;;;22.20;91.60;;;;;;4992647;28;20185;-68
2023/09/07 01:29:45;;;;;;;2.38;2.22;;;22.20;91.50;;;;;;4959338;28;20188;-68
2023/09/07 01:32:13;;;;;;;2.50;2.30;;;22.20;91.60;;;;;;4959276;28;20247;-68
2023/09/07 01:34:40;;;;;;;2.00;1.90;;;22.20;91.60;;;;;;4959894;28;20210;-68
2023/09/07 01:37:05;;;;;;;2.42;2.33;;;22.20;91.50;;;;;;4963759;28;20193;-68
2023/09/07 01:39:31;;;;;;;2.28;2.17;;;22.20;91.60;;;;;;4963794;28;20184;-68
2023/09/07 01:41:57;;;;;;;2.42;2.33;;;22.20;91.60;;;;;;4949460;28;20208;-69
2023/09/07 01:44:23;;;;;;;2.15;2.05;;;22.20;91.60;;;;;;4958943;28;20216;-68
2023/09/07 01:46:48;;;;;;;2.38;2.17;;;22.20;91.60;;;;;;4966841;28;20203;-69
2023/09/07 01:49:14;;;;;;;2.28;2.17;;;22.20;91.70;;;;;;4955854;28;20196;-68
2023/09/07 01:51:40;;;;;;;2.92;2.70;;;22.20;91.70;;;;;;4939598;28;20635;-69
2023/09/07 01:54:06;;;;;;;2.10;2.00;;;22.20;91.70;;;;;;4958039;28;20207;-68
2023/09/07 01:56:32;;;;;;;2.25;2.15;;;22.20;91.70;;;;;;4959192;28;20189;-68
2023/09/07 01:58:57;;;;;;;2.50;2.30;;;22.20;91.70;;;;;;4965212;28;20244;-69
2023/09/07 02:01:36;;;;;;;2.60;2.40;;;22.20;91.70;;;;;;4963577;28;20196;-69
2023/09/07 02:04:03;;;;;;;2.67;2.40;;;22.20;91.70;;;;;;4963257;28;20291;-68
2023/09/07 02:06:28;;;;;;;2.22;2.13;;;22.20;91.70;;;;;;4955503;28;20581;-68
2023/09/07 02:08:54;;;;;;;2.38;2.22;;;22.20;91.70;;;;;;4947359;28;20193;-69
2023/09/07 02:11:21;;;;;;;2.65;2.45;;;22.20;91.70;;;;;;4968087;28;20763;-68
2023/09/07 02:13:48;;;;;;;2.42;2.22;;;22.20;91.70;;;;;;4950651;28;20280;-68
2023/09/07 02:16:14;;;;;;;2.75;2.55;;;22.20;91.70;;;;;;4947809;29;20241;-69
2023/09/07 02:18:43;;;;;;;2.60;2.38;;;22.20;91.70;;;;;;4954924;28;20216;-69
2023/09/07 02:21:09;;;;;;;2.80;2.60;;;22.20;91.70;;;;;;4954292;28;20193;-68
2023/09/07 02:23:38;;;;;;;2.38;2.22;;;22.20;91.80;;;;;;4962704;28;20193;-68
2023/09/07 02:26:04;;;;;;;2.40;2.20;;;22.20;91.70;;;;;;4952671;28;20221;-69
2023/09/07 02:28:31;;;;;;;2.67;2.47;;;22.20;91.80;;;;;;4962726;28;20197;-68
2023/09/07 02:31:05;;;;;;;2.38;2.28;;;22.20;91.80;;;;;;4958586;28;20275;-68
2023/09/07 02:33:31;;;;;;;2.63;2.42;;;22.20;91.80;;;;;;4942048;28;20193;-68
2023/09/07 02:35:57;;;;;;;2.60;2.40;;;22.20;91.80;;;;;;4956238;28;20202;-69
2023/09/07 02:38:23;;;;;;;2.35;2.15;;;22.20;91.80;;;;;;4941136;29;20214;-68
2023/09/07 02:40:49;;;;;;;2.63;2.47;;;22.20;91.80;;;;;;4987344;28;20193;-68
2023/09/07 02:43:16;;;;;;;2.47;2.30;;;22.20;91.90;;;;;;4943307;28;20204;-69
2023/09/07 02:45:42;;;;;;;2.60;2.40;;;22.20;91.90;;;;;;4950483;28;20212;-69
2023/09/07 02:48:08;;;;;;;2.80;2.60;;;22.20;91.90;;;;;;4958942;28;20775;-68
2023/09/07 02:50:35;;;;;;;2.65;2.45;;;22.20;91.90;;;;;;4959132;28;20228;-68
2023/09/07 02:53:04;;;;;;;2.92;2.72;;;22.20;91.90;;;;;;4958540;28;20194;-69
2023/09/07 02:55:31;;;;;;;2.45;2.25;;;22.20;92.00;;;;;;4966807;28;20260;-69
2023/09/07 02:57:57;;;;;;;2.30;2.10;;;22.20;91.90;;;;;;4950533;28;20186;-68
2023/09/07 03:00:23;;;;;;;2.60;2.40;;;22.20;91.90;;;;;;4929773;29;20272;-69
2023/09/07 03:02:49;;;;;;;2.80;2.60;;;22.20;91.90;;;;;;4948619;28;20198;-68
2023/09/07 03:05:16;;;;;;;2.78;2.58;;;22.20;92.20;;;;;;4942080;28;20209;-69
2023/09/07 03:07:49;;;;;;;2.80;2.60;;;22.20;91.90;;;;;;4966438;28;20186;-68
2023/09/07 03:10:17;;;;;;;3.00;2.70;;;22.20;91.90;;;;;;4961069;28;20674;-69
2023/09/07 03:12:44;;;;;;;2.75;2.55;;;22.20;91.90;;;;;;4969285;28;20300;-69
2023/09/07 03:15:10;;;;;;;2.22;2.13;;;22.20;91.90;;;;;;4969433;28;20221;-69
2023/09/07 03:17:35;;;;;;;2.58;2.38;;;22.20;91.90;;;;;;4964297;28;20276;-68
2023/09/07 03:20:13;;;;;;;2.95;2.75;;;22.20;91.90;;;;;;4942998;28;20599;-69
2023/09/07 03:22:42;;;;;;;2.83;2.60;;;22.20;92.00;;;;;;4953781;28;20542;-69
2023/09/07 03:25:12;;;;;;;2.65;2.50;;;22.20;92.00;;;;;;4983474;28;20212;-68
2023/09/07 03:27:38;;;;;;;2.67;2.47;;;22.20;92.00;;;;;;4965671;28;20192;-68
2023/09/07 03:30:07;;;;;;;2.72;2.53;;;22.20;92.00;;;;;;4944122;28;20628;-68
2023/09/07 03:32:34;;;;;;;3.15;2.80;;;22.20;92.00;;;;;;4942365;28;20194;-68
2023/09/07 03:35:00;;;;;;;2.55;2.33;;;22.10;91.90;;;;;;4957343;28;20213;-68
2023/09/07 03:37:29;;;;;;;2.80;2.60;;;22.20;92.00;;;;;;4938852;29;20318;-69
2023/09/07 03:39:56;;;;;;;2.65;2.45;;;22.20;92.00;;;;;;4958070;28;20193;-68
2023/09/07 03:42:22;;;;;;;2.80;2.60;;;22.10;91.90;;;;;;4962502;28;20187;-69
2023/09/07 03:44:49;;;;;;;3.38;3.08;;;22.10;92.00;;;;;;4945194;28;20206;-68
2023/09/07 03:47:15;;;;;;;3.30;3.10;;;22.20;92.00;;;;;;4957448;28;20197;-69
2023/09/07 03:49:41;;;;;;;3.40;3.10;;;22.20;92.00;;;;;;4944033;28;20187;-69
2023/09/07 03:52:07;;;;;;;2.90;2.70;;;22.20;92.00;;;;;;4945924;28;20693;-69
2023/09/07 03:54:33;;;;;;;2.85;2.65;;;22.20;92.00;;;;;;4922448;29;20209;-68
2023/09/07 03:56:59;;;;;;;2.80;2.60;;;22.20;92.00;;;;;;4946210;28;20185;-69
2023/09/07 03:59:27;;;;;;;2.80;2.60;;;22.20;92.00;;;;;;4957249;28;20196;-69
2023/09/07 04:01:54;;;;;;;2.97;2.78;;;22.10;92.00;;;;;;4986048;28;20200;-68
2023/09/07 04:04:20;;;;;;;2.80;2.60;;;22.20;92.00;;;;;;4946023;28;20225;-68
2023/09/07 04:06:49;;;;;;;3.15;2.85;;;22.20;92.00;;;;;;4961467;28;20734;-69
2023/09/07 04:09:15;;;;;;;3.05;2.85;;;22.20;92.10;;;;;;4930440;28;20186;-69
2023/09/07 04:11:41;;;;;;;3.17;2.95;;;22.20;92.20;;;;;;4945872;29;20211;-69
2023/09/07 04:14:07;;;;;;;2.90;2.70;;;22.20;92.10;;;;;;4937139;28;20603;-69
2023/09/07 04:16:33;;;;;;;2.55;2.40;;;22.20;92.10;;;;;;4956119;28;20178;-69
2023/09/07 04:18:58;;;;;;;3.08;2.88;;;22.20;92.10;;;;;;4942062;29;20205;-69
2023/09/07 04:21:24;;;;;;;2.85;2.65;;;22.20;92.10;;;;;;4956488;28;20232;-68
2023/09/07 04:23:50;;;;;;;2.90;2.70;;;22.10;92.00;;;;;;4950424;28;20190;-68
2023/09/07 04:26:16;;;;;;;2.92;2.72;;;22.10;92.00;;;;;;4955468;28;20213;-68
2023/09/07 04:28:42;;;;;;;2.88;2.67;;;22.10;92.10;;;;;;4933329;28;20192;-68
2023/09/07 04:31:07;;;;;;;2.90;2.70;;;22.20;92.10;;;;;;4948032;28;20218;-69
2023/09/07 04:33:34;;;;;;;2.92;2.72;;;22.10;92.00;;;;;;4929502;29;20185;-68
2023/09/07 04:36:12;;;;;;;2.83;2.63;;;22.20;92.40;;;;;;4929936;29;20202;-70
2023/09/07 04:38:40;;;;;;;2.80;2.60;;;22.20;92.10;;;;;;4957995;28;20181;-68
2023/09/07 04:41:07;;;;;;;2.50;2.40;;;22.20;92.40;;;;;;4956957;28;20189;-68
2023/09/07 04:43:32;;;;;;;2.60;2.40;;;22.10;92.00;;;;;;4968140;28;20205;-68
2023/09/07 04:45:58;;;;;;;3.13;2.92;;;22.10;92.00;;;;;;4960304;28;20205;-69
2023/09/07 04:48:24;;;;;;;3.08;2.88;;;22.10;92.10;;;;;;4951862;28;20574;-68
2023/09/07 04:51:03;;;;;;;3.33;3.13;;;22.10;92.10;;;;;;4961583;28;20212;-68
2023/09/07 04:53:31;;;;;;;2.80;2.60;;;22.10;92.10;;;;;;4956186;28;20212;-68
2023/09/07 04:55:59;;;;;;;3.15;2.95;;;22.10;92.00;;;;;;4956475;28;20268;-68
2023/09/07 04:58:25;;;;;;;3.05;2.85;;;22.10;92.10;;;;;;4940349;28;20213;-68
2023/09/07 05:00:51;;;;;;;2.80;2.60;;;22.10;92.10;;;;;;4956675;28;20273;-68
2023/09/07 05:03:17;;;;;;;2.95;2.75;;;22.10;92.10;;;;;;4956439;28;20201;-69
2023/09/07 05:05:44;;;;;;;2.55;2.38;;;22.10;92.10;;;;;;4945291;28;20201;-69
2023/09/07 05:08:11;;;;;;;3.42;3.20;;;22.10;92.10;;;;;;4948014;28;20186;-69
2023/09/07 05:10:38;;;;;;;2.95;2.75;;;22.10;92.10;;;;;;4971574;28;20210;-68
2023/09/07 05:13:04;;;;;;;3.15;2.95;;;22.10;92.10;;;;;;4948358;28;20256;-69
2023/09/07 05:15:29;;;;;;;2.90;2.70;;;22.10;92.10;;;;;;4942835;28;20201;-69
2023/09/07 05:17:55;;;;;;;2.92;2.72;;;22.10;92.10;;;;;;4951696;28;20184;-68
2023/09/07 05:20:21;;;;;;;3.40;3.10;;;22.10;92.10;;;;;;4949373;28;20219;-69
2023/09/07 05:22:48;;;;;;;2.90;2.70;;;22.10;92.10;;;;;;4945331;28;20191;-69
2023/09/07 05:25:14;;;;;;;3.30;3.10;;;22.10;92.10;;;;;;4966719;28;20202;-69
2023/09/07 05:27:40;;;;;;;3.13;2.92;;;22.10;92.10;;;;;;4971231;28;20236;-69
2023/09/07 05:30:06;;;;;;;3.40;3.15;;;22.10;92.10;;;;;;4966277;28;20184;-69
2023/09/07 05:32:32;;;;;;;3.25;3.00;;;22.10;92.10;;;;;;4967474;28;20224;-69
2023/09/07 05:34:58;;;;;;;3.05;2.85;;;22.10;92.10;;;;;;4951136;28;20227;-69
2023/09/07 05:37:24;;;;;;;2.60;2.40;;;22.10;92.10;;;;;;4958940;28;20189;-69
2023/09/07 05:39:50;;;;;;;3.20;3.00;;;22.10;92.10;;;;;;4945891;28;20182;-69
2023/09/07 05:42:16;;;;;;;2.78;2.58;;;22.10;92.10;;;;;;4964346;28;20205;-69
2023/09/07 05:44:42;;;;;;;3.35;3.10;;;22.10;92.10;;;;;;4936618;29;20210;-69
2023/09/07 05:47:08;;;;;;;3.17;2.97;;;22.10;92.10;;;;;;4964044;28;20195;-69
2023/09/07 05:49:34;;;;;;;3.08;2.88;;;22.10;92.10;;;;;;4963156;28;20280;-69
2023/09/07 05:51:59;;;;;;;2.75;2.55;;;22.10;92.10;;;;;;4955721;28;20210;-69
2023/09/07 05:54:25;;;;;;;3.08;2.88;;;22.10;92.10;;;;;;4971178;28;20258;-69
2023/09/07 05:56:51;;;;;;;3.40;3.10;;;22.10;92.10;;;;;;4939780;28;20182;-68
2023/09/07 05:59:18;;;;;;;3.20;3.00;;;22.10;92.10;;;;;;4950529;28;20206;-69
2023/09/07 06:01:44;;;;;;;3.33;2.90;;;22.10;92.20;;;;;;4960329;28;20273;-68
2023/09/07 06:04:10;;;;;;;3.42;3.13;;;22.10;92.20;;;;;;4958220;28;20331;-68
2023/09/07 06:06:37;;;;;;;3.08;2.88;;;22.10;92.20;;;;;;4974091;28;20190;-69
2023/09/07 06:09:03;;;;;;;2.88;2.67;;;22.10;92.20;;;;;;4970278;28;20199;-68
2023/09/07 06:11:31;;;;;;;3.45;3.15;;;22.10;92.30;;;;;;4958516;28;20240;-68
2023/09/07 06:13:58;;;;;;;3.53;3.22;;;22.10;92.30;;;;;;4954246;28;20258;-68
2023/09/07 06:16:24;;;;;;;3.65;3.35;;;22.10;92.30;;;;;;4945596;28;20189;-68
2023/09/07 06:18:50;;;;;;;4.13;3.00;;;22.10;92.30;;;;;;4963703;28;20248;-69
2023/09/07 06:21:16;;;;;;;3.35;3.10;;;22.10;92.30;;;;;;4945140;28;20720;-68
2023/09/07 06:23:43;;;;;;;3.50;3.20;;;22.10;92.30;;;;;;4963658;28;20190;-70
2023/09/07 06:26:09;;;;;;;3.40;2.90;;;22.10;92.20;;;;;;4943198;28;20204;-68
2023/09/07 06:28:34;;;;;;;4.43;3.22;;;22.10;92.30;;;;;;4957420;28;20196;-68
2023/09/07 06:31:00;;;;;;;3.25;3.05;;;22.10;92.30;;;;;;4943504;28;20201;-69
2023/09/07 06:33:26;;;;;;;3.28;3.08;;;22.10;92.20;;;;;;4955006;28;20193;-69
2023/09/07 06:35:52;;;;;;;3.55;3.25;;;22.10;92.10;;;;;;4972064;28;20213;-68
2023/09/07 06:38:18;;;;;;;3.33;3.10;;;22.10;92.10;;;;;;4944319;28;20793;-68
2023/09/07 06:40:50;;;;;;;3.45;3.15;;;22.10;92.10;;;;;;4947029;28;20196;-67
2023/09/07 06:43:17;;;;;;;3.20;3.00;;;22.10;92.10;;;;;;4954796;28;20263;-68
2023/09/07 06:45:44;;;;;;;3.28;3.08;;;22.10;92.10;;;;;;4950838;28;20200;-69
2023/09/07 06:48:10;;;;;;;3.80;3.50;;;22.10;92.10;;;;;;4943287;28;20197;-69
2023/09/07 06:50:36;;;;;;;3.70;3.40;;;22.10;92.10;;;;;;4957790;28;20217;-69
2023/09/07 06:53:02;;;;;;;3.95;3.55;;;22.10;92.10;;;;;;4955138;28;20221;-69
2023/09/07 06:55:29;;;;;;;3.65;3.35;;;22.10;92.10;;;;;;4936411;28;20238;-68
2023/09/07 06:57:55;;;;;;;3.47;3.28;;;22.10;92.10;;;;;;4960386;28;20211;-68
2023/09/07 07:00:21;;;;;;;3.47;3.17;;;22.10;92.20;;;;;;4953057;28;20202;-69
2023/09/07 07:02:47;;;;;;;4.00;3.70;;;22.00;92.10;;;;;;4940375;29;20183;-69
2023/09/07 07:05:13;;;;;;;3.75;3.45;;;22.10;92.10;;;;;;4957341;28;20210;-69
2023/09/07 07:07:40;;;;;;;3.67;3.38;;;22.10;92.10;;;;;;4947558;28;20236;-68
2023/09/07 07:10:07;;;;;;;3.38;3.08;;;22.10;92.10;;;;;;4948964;28;20185;-69
2023/09/07 07:12:34;;;;;;;3.38;3.17;;;22.10;92.10;;;;;;4959653;28;20204;-69
2023/09/07 07:15:05;;;;;;;3.67;3.42;;;22.10;92.10;;;;;;4947702;28;20204;-69
2023/09/07 07:17:31;;;;;;;3.72;3.42;;;22.00;92.00;;;;;;4944022;28;20212;-68
2023/09/07 07:19:57;;;;;;;3.90;3.60;;;22.10;92.10;;;;;;4958176;28;20190;-69
2023/09/07 07:22:23;;;;;;;4.07;3.70;;;22.10;92.00;;;;;;4957937;28;20193;-69
2023/09/07 07:24:50;;;;;;;4.00;3.70;;;22.10;92.10;;;;;;4944405;28;20206;-69
2023/09/07 07:27:16;;;;;;;4.53;4.13;;;22.10;92.10;;;;;;4965656;28;20185;-69
2023/09/07 07:29:43;;;;;;;3.80;3.53;;;22.10;92.10;;;;;;4955472;28;20249;-69
2023/09/07 07:32:09;;;;;;;3.85;3.55;;;22.10;92.10;;;;;;4958295;28;20681;-68
2023/09/07 07:34:35;;;;;;;3.65;3.35;;;22.10;92.10;;;;;;4965467;28;20256;-69
2023/09/07 07:37:01;;;;;;;4.22;3.83;;;22.10;92.10;;;;;;4943555;29;20186;-69
2023/09/07 07:39:27;;;;;;;3.72;3.42;;;22.00;92.00;;;;;;4972543;28;20276;-69
2023/09/07 07:41:53;;;;;;;3.85;3.55;;;22.10;92.10;;;;;;4941800;28;20250;-68
2023/09/07 07:44:18;;;;;;;3.78;3.47;;;22.10;92.10;;;;;;4941313;28;20223;-69
2023/09/07 07:46:45;;;;;;;3.97;3.67;;;22.10;92.10;;;;;;4952453;28;20186;-69
2023/09/07 07:49:11;;;;;;;3.90;3.60;;;22.10;92.20;;;;;;4956296;28;20189;-69
2023/09/07 07:51:37;;;;;;;4.00;3.60;;;22.10;92.20;;;;;;4950743;28;20217;-68
2023/09/07 07:54:03;;;;;;;3.60;3.30;;;22.10;92.20;;;;;;4962775;28;20177;-68
2023/09/07 07:56:29;;;;;;;4.22;3.92;;;22.10;92.20;;;;;;4944161;28;20222;-68
2023/09/07 07:58:56;;;;;;;4.20;3.80;;;22.10;92.20;;;;;;4947491;29;20187;-69
2023/09/07 08:01:22;;;;;;;4.20;3.90;;;22.10;92.20;;;;;;4968260;28;20212;-69
2023/09/07 08:03:49;;;;;;;3.92;3.63;;;22.20;92.20;;;;;;4955195;28;20731;-69
2023/09/07 08:06:16;;;;;;;5.00;3.90;;;22.20;92.10;;;;;;4932541;28;20211;-67
2023/09/07 08:08:42;;;;;;;4.10;3.80;;;22.20;92.10;;;;;;4956464;28;20277;-68
2023/09/07 08:11:08;;;;;;;4.00;3.70;;;22.20;92.20;;;;;;4943953;28;20206;-68
2023/09/07 08:13:36;;;;;;;4.05;3.67;;;22.20;92.10;;;;;;4972533;28;20195;-68
2023/09/07 08:16:05;;;;;;;4.43;4.13;;;22.20;92.10;;;;;;4941440;28;20296;-68
2023/09/07 08:18:34;;;;;;;4.25;3.95;;;22.20;92.10;;;;;;4957177;28;20213;-68
2023/09/07 08:21:00;;;;;;;4.07;3.78;;;22.30;92.10;;;;;;4957096;28;20217;-68
2023/09/07 08:23:26;;;;;;;4.03;3.72;;;22.30;92.10;;;;;;4940689;28;20231;-69
2023/09/07 08:25:52;;;;;;;3.95;3.65;;;22.30;92.10;;;;;;4957182;28;20260;-68
2023/09/07 08:28:22;;;;;;;3.83;3.53;;;22.30;92.10;;;;;;4949716;29;20225;-68
2023/09/07 08:30:53;;;;;;;4.07;3.78;;;22.40;92.10;;;;;;4940594;28;20202;-68
2023/09/07 08:33:22;;;;;;;4.00;3.65;;;22.30;92.10;;;;;;4964815;28;20198;-69
2023/09/07 08:35:52;;;;;;;3.72;3.42;;;22.40;92.10;;;;;;4964568;28;20284;-68
2023/09/07 08:38:22;;;;;;;4.20;3.75;;;22.30;92.10;;;;;;4948443;28;20203;-69
2023/09/07 08:40:49;;;;;;;4.10;3.70;;;22.30;92.10;;;;;;4970071;28;20198;-68
2023/09/07 08:43:16;;;;;;;4.47;4.18;;;22.30;92.10;;;;;;4970199;28;20281;-68
2023/09/07 08:45:50;;;;;;;4.20;3.90;;;22.40;92.20;;;;;;4952421;28;20210;-68
2023/09/07 08:48:18;;;;;;;4.10;3.80;;;22.40;92.30;;;;;;4947185;28;20192;-68
2023/09/07 08:50:49;;;;;;;4.28;3.97;;;22.40;92.30;;;;;;4960002;28;20206;-68
2023/09/07 08:53:20;;;;;;;4.18;3.88;;;22.40;92.30;;;;;;4953281;29;20190;-68
2023/09/07 08:55:46;;;;;;;4.22;3.92;;;22.40;92.30;;;;;;4958947;28;20243;-68
2023/09/07 08:58:13;;;;;;;4.53;4.20;;;22.40;92.30;;;;;;4964516;28;20313;-68
2023/09/07 09:00:43;;;;;;;4.05;3.72;;;22.40;92.30;;;;;;4949477;28;20204;-68
2023/09/07 09:03:13;;;;;;;4.30;3.70;;;22.40;92.40;;;;;;4946712;28;20201;-68
2023/09/07 09:05:41;;;;;;;4.03;3.72;;;22.40;92.40;;;;;;4961726;28;20218;-68
2023/09/07 09:08:07;;;;;;;4.50;4.20;;;22.40;92.60;;;;;;4961517;28;20248;-68
2023/09/07 09:10:33;;;;;;;4.13;3.80;;;22.40;92.40;;;;;;4956198;28;20230;-68
2023/09/07 09:13:01;;;;;;;4.78;4.38;;;22.40;92.50;;;;;;4945387;29;20285;-69
2023/09/07 09:15:27;;;;;;;3.95;3.65;;;22.40;92.50;;;;;;4969393;28;20264;-69
2023/09/07 09:17:53;;;;;;;4.10;3.80;;;22.40;92.50;;;;;;4947232;28;20193;-71
2023/09/07 09:20:28;;;;;;;3.88;3.63;;;22.40;92.50;;;;;;4973366;28;20277;-69
2023/09/07 09:22:56;;;;;;;4.25;3.95;;;22.40;92.60;;;;;;4980994;28;20246;-69
2023/09/07 09:25:22;;;;;;;4.30;3.90;;;22.40;92.60;;;;;;4948008;28;20242;-69
2023/09/07 09:27:48;;;;;;;4.22;3.92;;;22.40;92.70;;;;;;4955070;28;20244;-70
2023/09/07 09:30:16;;;;;;;3.90;3.70;;;22.40;92.70;;;;;;4956022;28;20604;-69
2023/09/07 09:32:43;;;;;;;4.07;3.78;;;22.40;92.70;;;;;;4951985;28;20190;-69
2023/09/07 09:35:09;;;;;;;4.03;3.72;;;22.40;92.80;;;;;;4952855;28;20215;-71
2023/09/07 09:37:45;;;;;;;4.60;4.30;;;22.40;92.80;;;;;;4974741;28;20189;-69
2023/09/07 09:40:13;;;;;;;4.05;3.75;;;22.40;92.80;;;;;;4963933;28;20185;-69
2023/09/07 09:42:42;;;;;;;4.60;3.90;;;22.40;92.90;;;;;;4955865;28;20284;-69
2023/09/07 09:45:11;;;;;;;4.65;4.25;;;22.40;93.10;;;;;;4963734;28;20212;-69
2023/09/07 09:47:43;;;;;;;4.10;3.80;;;22.40;93.20;;;;;;4940268;28;20197;-69
2023/09/07 09:50:11;;;;;;;4.30;4.00;;;22.40;93.20;;;;;;4967250;28;20583;-69
2023/09/07 09:52:38;;;;;;;4.63;4.22;;;22.40;93.70;;;;;;4959094;28;20225;-69
2023/09/07 09:55:08;;;;;;;4.30;4.00;;;22.40;93.80;;;;;;4947191;28;20588;-69
2023/09/07 09:57:35;;;;;;;4.28;3.95;;;22.40;93.60;;;;;;4964037;28;20190;-69
2023/09/07 10:00:17;;;;;;;4.40;4.05;;;22.40;93.60;;;;;;4972237;28;20248;-68
2023/09/07 10:03:12;;;;;;;4.93;4.28;;;22.40;93.60;;;;;;4940674;28;20281;-68
2023/09/07 10:05:38;;;;;;;5.10;4.60;;;22.40;93.60;;;;;;4942484;28;20212;-69
2023/09/07 10:08:13;;;;;;;4.50;4.13;;;22.40;93.50;;;;;;4947156;28;20184;-69
2023/09/07 10:10:41;;;;;;;4.80;4.40;;;22.40;93.50;;;;;;4980064;28;20213;-69
2023/09/07 10:13:07;;;;;;;4.57;4.28;;;22.40;93.60;;;;;;4943579;29;20274;-68
2023/09/07 10:15:35;;;;;;;4.93;4.50;;;22.40;93.80;;;;;;4935616;28;20300;-69
2023/09/07 10:18:18;;;;;;;4.50;4.20;;;22.40;93.80;;;;;;4968179;28;20181;-68
2023/09/07 10:20:58;;;;;;;4.90;4.50;;;22.40;94.00;;;;;;4958988;28;20308;-68
2023/09/07 10:23:44;;;;;;;4.57;4.10;;;22.40;93.80;;;;;;4958804;28;20674;-69
2023/09/07 10:26:15;;;;;;;5.00;4.60;;;22.40;93.80;;;;;;4948878;28;20216;-69
2023/09/07 10:28:43;;;;;;;4.75;4.25;;;22.40;93.80;;;;;;4972808;28;20197;-68
2023/09/07 10:31:19;;;;;;;4.65;4.32;;;22.40;93.90;;;;;;4951463;28;20213;-68
2023/09/07 10:33:46;;;;;;;4.38;3.95;;;22.40;93.90;;;;;;4958260;28;20185;-69
2023/09/07 10:36:27;;;;;;;5.18;4.68;;;22.40;93.80;;;;;;4947992;28;20208;-69
2023/09/07 10:38:56;;;;;;;4.72;4.32;;;22.40;94.00;;;;;;4976386;28;20189;-68
2023/09/07 10:41:22;;;;;;;4.97;4.57;;;22.40;94.00;;;;;;4977044;28;20580;-69
2023/09/07 10:43:54;;;;;;;4.40;4.00;;;22.40;94.00;;;;;;4950892;28;20201;-69
2023/09/07 10:46:22;;;;;;;5.15;4.75;;;22.50;94.00;;;;;;4964554;28;20311;-69
2023/09/07 10:48:56;;;;;;;4.57;4.25;;;22.50;94.40;;;;;;4961034;28;20201;-69
2023/09/07 10:51:22;;;;;;;4.88;4.45;;;22.40;94.20;;;;;;4964550;28;20208;-69
2023/09/07 10:53:49;;;;;;;4.57;4.28;;;22.40;94.20;;;;;;4960675;28;20190;-69
2023/09/07 10:56:15;;;;;;;4.93;4.55;;;22.50;94.20;;;;;;4958391;28;20205;-70
2023/09/07 10:58:42;;;;;;;4.88;4.55;;;22.40;94.20;;;;;;4942577;28;20197;-69
2023/09/07 11:01:11;;;;;;;4.72;4.40;;;22.40;94.40;;;;;;4942716;28;20197;-69
2023/09/07 11:03:37;;;;;;;4.57;4.18;;;22.40;94.60;;;;;;4950696;28;20208;-68
2023/09/07 11:06:19;;;;;;;5.03;4.63;;;22.40;94.40;;;;;;4975747;28;20217;-69
2023/09/07 11:08:46;;;;;;;4.80;4.40;;;22.50;94.50;;;;;;4951116;28;20216;-70
2023/09/07 11:11:13;;;;;;;4.65;4.25;;;22.40;94.40;;;;;;4973532;28;20688;-69
2023/09/07 11:13:39;;;;;;;5.10;4.70;;;22.50;94.50;;;;;;4966145;28;20192;-69
2023/09/07 11:16:09;;;;;;;4.78;4.40;;;22.50;94.30;;;;;;4966659;28;20212;-69
2023/09/07 11:18:36;;;;;;;4.57;4.28;;;22.50;94.50;;;;;;4950265;28;20194;-69
2023/09/07 11:21:03;;;;;;;5.30;4.90;;;22.50;94.70;;;;;;4945184;28;20189;-69
2023/09/07 11:23:37;;;;;;;5.05;4.65;;;22.50;94.50;;;;;;4954726;28;20590;-69
2023/09/07 11:26:08;;;;;;;4.90;4.50;;;22.50;94.70;;;;;;4942030;28;20202;-69
2023/09/07 11:28:34;;;;;;;4.97;4.57;;;22.50;94.60;;;;;;4958268;28;20661;-68
2023/09/07 11:31:00;;;;;;;4.72;4.30;;;22.50;94.70;;;;;;4942287;28;20209;-69
2023/09/07 11:33:31;;;;;;;5.00;4.60;;;22.50;94.70;;;;;;4958067;28;20729;-69
2023/09/07 11:35:56;;;;;;;4.90;4.53;;;22.50;94.50;;;;;;4973975;28;20271;-68
2023/09/07 11:38:22;;;;;;;4.90;4.40;;;22.50;94.50;;;;;;4975260;28;20182;-69
2023/09/07 11:40:48;;;;;;;4.30;4.00;;;22.50;94.50;;;;;;4941876;28;20193;-68
2023/09/07 11:43:17;;;;;;;5.20;4.35;;;22.50;94.50;;;;;;4953591;29;20190;-68
2023/09/07 11:45:44;;;;;;;4.72;4.32;;;22.50;94.40;;;;;;4966022;28;20224;-68
2023/09/07 11:48:10;;;;;;;4.93;4.53;;;22.50;94.40;;;;;;4960773;28;20224;-68
2023/09/07 11:50:37;;;;;;;4.40;4.10;;;22.50;94.40;;;;;;4962115;28;20189;-68
2023/09/07 11:53:05;;;;;;;4.40;4.10;;;22.50;94.40;;;;;;4957771;28;20233;-68
2023/09/07 11:55:31;;;;;;;4.57;4.18;;;22.50;94.40;;;;;;4957572;28;20217;-68
2023/09/07 11:57:57;;;;;;;4.20;3.90;;;22.50;94.40;;;;;;4965603;28;20197;-68
2023/09/07 12:00:23;;;;;;;4.93;4.53;;;22.50;94.40;;;;;;4947120;28;20221;-68
2023/09/07 12:02:49;;;;;;;4.70;4.30;;;22.50;94.40;;;;;;4985183;28;20197;-68
2023/09/07 12:05:16;;;;;;;5.07;4.68;;;22.60;94.50;;;;;;4969652;28;20197;-68
2023/09/07 12:07:43;;;;;;;4.80;4.43;;;22.50;94.50;;;;;;4952763;28;20550;-68
2023/09/07 12:10:10;;;;;;;4.60;4.20;;;22.50;94.70;;;;;;4965417;28;20340;-69
2023/09/07 12:12:40;;;;;;;4.72;4.32;;;22.50;94.90;;;;;;4956370;28;20263;-68
2023/09/07 12:15:07;;;;;;;4.53;4.22;;;22.50;95.20;;;;;;4957545;28;20276;-69
2023/09/07 12:17:34;;;;;;;4.50;4.20;;;22.50;95.00;;;;;;4937491;28;20193;-68
2023/09/07 12:20:00;;;;;;;4.78;4.38;;;22.50;95.20;;;;;;4957058;28;20263;-68
2023/09/07 12:22:27;;;;;;;4.95;4.55;;;22.50;95.00;;;;;;4943503;29;20202;-68
2023/09/07 12:24:53;;;;;;;5.03;4.63;;;22.60;95.00;;;;;;4938929;28;20217;-69
2023/09/07 12:27:19;;;;;;;4.45;4.03;;;22.50;95.30;;;;;;4971520;28;20280;-68
2023/09/07 12:29:45;;;;;;;4.60;4.30;;;22.50;95.10;;;;;;4948909;28;20650;-68
2023/09/07 12:32:11;;;;;;;4.93;4.47;;;22.50;95.10;;;;;;4949167;28;20677;-68
2023/09/07 12:34:37;;;;;;;4.45;4.15;;;22.50;95.10;;;;;;4941811;29;20221;-69
2023/09/07 12:37:06;;;;;;;4.57;4.28;;;22.50;95.00;;;;;;4956717;28;20200;-69
2023/09/07 12:39:32;;;;;;;4.82;4.28;;;22.50;95.10;;;;;;4940848;28;20217;-69
2023/09/07 12:41:58;;;;;;;4.85;4.40;;;22.50;95.00;;;;;;4948722;28;20186;-68
2023/09/07 12:44:24;;;;;;;4.35;4.05;;;22.50;95.00;;;;;;4956736;28;20727;-68
2023/09/07 12:46:50;;;;;;;4.97;4.57;;;22.50;95.10;;;;;;4940044;28;20194;-67
2023/09/07 12:49:16;;;;;;;4.40;4.00;;;22.50;95.00;;;;;;4946089;28;20215;-68